Time;durP1;ratioP1;P1;durP2;ratioP2;P2;SDS_P1;SDS_P2;PMS_P1;PMS_P2;Temp;Humidity;BMP_temperature;BMP_pressure;BME280_temperature;BME280_humidity;BME280_pressure;Samples;Min_cycle;Max_cycle;Signal;HPM_P1;HPM_P2
2022/03/07 05:07:27;;;;;;;;;16.00;15.50;;;;;;;;6124408;39;10001177;-56
2022/03/07 05:13:29;;;;;;;;;20.33;20.33;;;;;;;;6493287;46;8901;-56
2022/03/07 05:19:31;;;;;;;;;17.00;16.00;;;;;;;;6493985;46;9084;-53
2022/03/07 05:25:33;;;;;;;;;26.33;19.00;;;;;;;;6494008;31;8952;-55
2022/03/07 05:31:35;;;;;;;;;23.75;18.50;;;;;;;;6492066;39;8828;-54
2022/03/07 05:37:38;;;;;;;;;26.25;21.00;;;;;;;;6494546;39;8936;-56
2022/03/07 05:43:40;;;;;;;;;21.33;19.00;;;;;;;;6493273;31;9106;-55
2022/03/07 05:49:47;;;;;;;;;25.00;22.00;;;;;;;;6494059;31;8887;-55
2022/03/07 05:55:50;;;;;;;;;26.00;18.75;;;;;;;;6493906;39;8903;-56
2022/03/07 06:01:52;;;;;;;;;21.25;16.00;;;;;;;;6492636;46;9412;-56
2022/03/07 06:07:55;;;;;;;;;33.67;24.00;;;;;;;;6493972;39;8979;-54
2022/03/07 06:13:57;;;;;;;;;18.25;17.75;;;;;;;;6492166;39;8939;-55
2022/03/07 06:20:00;;;;;;;;;22.00;20.33;;;;;;;;6493419;39;8860;-54
2022/03/07 06:26:06;;;;;;;;;26.25;23.00;;;;;;;;6493502;39;8911;-55
2022/03/07 06:32:08;;;;;;;;;28.50;23.50;;;;;;;;6492511;46;8891;-56
2022/03/07 06:38:12;;;;;;;;;17.50;15.50;;;;;;;;6493747;31;8873;-56
2022/03/07 06:44:14;;;;;;;;;22.25;18.00;;;;;;;;6492940;39;8886;-56
2022/03/07 06:50:17;;;;;;;;;29.00;23.00;;;;;;;;6492752;39;8874;-54
2022/03/07 06:56:20;;;;;;;;;27.25;24.00;;;;;;;;6489668;31;8977;-54
2022/03/07 07:02:22;;;;;;;;;31.25;25.00;;;;;;;;6488659;39;9027;-53
2022/03/07 07:08:24;;;;;;;;;33.25;28.75;;;;;;;;6486736;39;8864;-51
2022/03/07 07:14:27;;;;;;;;;33.75;27.25;;;;;;;;6488441;39;9505;-53
2022/03/07 07:20:29;;;;;;;;;30.75;24.25;;;;;;;;6488566;46;8881;-55
2022/03/07 07:26:31;;;;;;;;;41.00;31.75;;;;;;;;6489109;46;9036;-54
2022/03/07 07:32:40;;;;;;;;;27.25;27.25;;;;;;;;6489567;39;8905;-54
2022/03/07 07:38:42;;;;;;;;;29.50;27.25;;;;;;;;6490033;31;8933;-53
2022/03/07 07:44:46;;;;;;;;;28.50;23.75;;;;;;;;6488552;46;8926;-54
2022/03/07 07:50:48;;;;;;;;;28.25;27.00;;;;;;;;6489119;39;8892;-54
2022/03/07 07:56:50;;;;;;;;;29.50;25.75;;;;;;;;6488684;39;9614;-54
2022/03/07 08:02:53;;;;;;;;;26.00;26.00;;;;;;;;6488276;47;9003;-51
2022/03/07 08:08:55;;;;;;;;;44.50;40.75;;;;;;;;6487279;47;8971;-53
2022/03/07 08:14:58;;;;;;;;;30.75;23.75;;;;;;;;6488507;31;8990;-51
2022/03/07 08:21:03;;;;;;;;;31.25;30.00;;;;;;;;6486066;47;9002;-50
2022/03/07 08:27:07;;;;;;;;;28.00;26.25;;;;;;;;6488729;39;8874;-53
2022/03/07 08:33:09;;;;;;;;;37.50;36.50;;;;;;;;6488033;39;8974;-53
2022/03/07 08:39:12;;;;;;;;;26.50;23.00;;;;;;;;6487599;31;8944;-56
2022/03/07 08:45:15;;;;;;;;;26.75;22.50;;;;;;;;6488565;39;9562;-52
2022/03/07 08:51:19;;;;;;;;;27.50;24.25;;;;;;;;6487819;31;8905;-54
2022/03/07 08:57:22;;;;;;;;;33.25;30.25;;;;;;;;6489068;39;8910;-58
2022/03/07 09:03:25;;;;;;;;;27.25;24.50;;;;;;;;6488502;39;8926;-57
2022/03/07 09:09:29;;;;;;;;;29.00;26.33;;;;;;;;6489881;39;8909;-54
2022/03/07 09:15:34;;;;;;;;;22.75;20.75;;;;;;;;6489567;46;9116;-52
2022/03/07 09:21:37;;;;;;;;;19.00;16.50;;;;;;;;6489404;31;8945;-56
2022/03/07 09:27:39;;;;;;;;;24.75;22.25;;;;;;;;6490602;39;8913;-54
2022/03/07 09:33:42;;;;;;;;;21.25;18.00;;;;;;;;6488106;46;8944;-52
2022/03/07 09:39:44;;;;;;;;;25.75;22.75;;;;;;;;6486939;39;8937;-53
2022/03/07 09:45:47;;;;;;;;;26.75;21.75;;;;;;;;6489251;39;9012;-56
2022/03/07 09:51:51;;;;;;;;;25.25;24.75;;;;;;;;6488507;46;9060;-53
2022/03/07 09:57:53;;;;;;;;;29.25;23.75;;;;;;;;6488663;39;8961;-53
2022/03/07 10:04:10;;;;;;;;;33.50;30.50;;;;;;;;6488874;46;8963;-55
2022/03/07 10:10:13;;;;;;;;;23.75;23.25;;;;;;;;6489395;31;9046;-56
2022/03/07 10:16:16;;;;;;;;;26.00;26.00;;;;;;;;6490136;39;9047;-55
2022/03/07 10:22:22;;;;;;;;;25.00;23.00;;;;;;;;6488988;39;8946;-53
2022/03/07 10:28:33;;;;;;;;;22.25;19.75;;;;;;;;6489482;31;9080;-55
2022/03/07 10:34:38;;;;;;;;;32.00;26.50;;;;;;;;6488848;31;8974;-55
2022/03/07 10:40:52;;;;;;;;;20.00;18.75;;;;;;;;6488983;31;9152;-54
2022/03/07 10:47:08;;;;;;;;;24.00;22.75;;;;;;;;6489279;46;8927;-56
2022/03/07 10:53:11;;;;;;;;;30.75;25.00;;;;;;;;6488539;46;8953;-52
2022/03/07 10:59:13;;;;;;;;;29.25;25.50;;;;;;;;6489843;46;8943;-57
2022/03/07 11:05:17;;;;;;;;;21.75;17.00;;;;;;;;6488569;46;8897;-57
2022/03/07 11:11:21;;;;;;;;;29.75;26.50;;;;;;;;6489976;39;8891;-52
2022/03/07 11:17:26;;;;;;;;;24.75;22.25;;;;;;;;6488042;46;8945;-54
2022/03/07 11:23:28;;;;;;;;;17.00;11.00;;;;;;;;6488182;39;8934;-54
2022/03/07 11:29:37;;;;;;;;;21.25;20.25;;;;;;;;6488696;39;8889;-53
2022/03/07 11:35:45;;;;;;;;;19.75;17.00;;;;;;;;6488640;39;9586;-53
2022/03/07 11:41:47;;;;;;;;;27.00;26.00;;;;;;;;6488732;31;9165;-54
2022/03/07 11:47:50;;;;;;;;;36.00;32.75;;;;;;;;6486763;31;9028;-57
2022/03/07 11:53:54;;;;;;;;;30.50;27.25;;;;;;;;6487559;31;8920;-53
2022/03/07 11:59:56;;;;;;;;;24.50;21.75;;;;;;;;6487274;39;9608;-52
2022/03/07 12:06:05;;;;;;;;;34.25;28.00;;;;;;;;6486373;39;8934;-55
2022/03/07 12:12:14;;;;;;;;;28.25;23.25;;;;;;;;6486463;39;8969;-53
2022/03/07 12:18:19;;;;;;;;;27.50;25.25;;;;;;;;6486840;31;8991;-56
2022/03/07 12:24:24;;;;;;;;;27.50;23.75;;;;;;;;6486078;39;8947;-53
2022/03/07 12:30:26;;;;;;;;;23.00;23.00;;;;;;;;6486620;31;8897;-56
2022/03/07 12:36:28;;;;;;;;;33.50;29.00;;;;;;;;6487659;31;8962;-54
2022/03/07 12:42:35;;;;;;;;;33.00;26.50;;;;;;;;6488633;39;8980;-55
2022/03/07 12:48:44;;;;;;;;;31.00;26.75;;;;;;;;6489058;39;8979;-54
2022/03/07 12:54:47;;;;;;;;;26.25;22.00;;;;;;;;6487730;39;8945;-57
2022/03/07 13:00:49;;;;;;;;;24.75;24.50;;;;;;;;6489218;39;8911;-55
2022/03/07 13:06:53;;;;;;;;;23.75;21.25;;;;;;;;6488260;46;8955;-55
2022/03/07 13:12:58;;;;;;;;;33.75;28.25;;;;;;;;6488244;39;8949;-54
2022/03/07 13:19:08;;;;;;;;;16.50;14.00;;;;;;;;6488794;39;8949;-54
2022/03/07 13:25:12;;;;;;;;;22.25;21.25;;;;;;;;6488977;39;9441;-55
2022/03/07 13:31:16;;;;;;;;;22.25;20.50;;;;;;;;6488441;39;8971;-54
2022/03/07 13:37:27;;;;;;;;;24.00;19.00;;;;;;;;6488484;39;8967;-49
2022/03/07 13:43:30;;;;;;;;;25.50;23.75;;;;;;;;6488704;39;9023;-52
2022/03/07 13:50:04;;;;;;;;;21.00;21.00;;;;;;;;6488379;31;10103;-55
2022/03/07 13:56:09;;;;;;;;;21.00;21.00;;;;;;;;6487932;46;8937;-54
2022/03/07 14:02:16;;;;;;;;;28.75;26.25;;;;;;;;6487684;39;8985;-53
2022/03/07 14:08:29;;;;;;;;;25.25;22.50;;;;;;;;6488178;31;8945;-55
2022/03/07 14:14:33;;;;;;;;;29.00;29.00;;;;;;;;6487194;31;8938;-53
2022/03/07 14:20:38;;;;;;;;;30.25;29.50;;;;;;;;6488231;39;8937;-54
2022/03/07 14:26:40;;;;;;;;;28.25;24.00;;;;;;;;6488939;31;9019;-52
2022/03/07 14:32:43;;;;;;;;;21.75;21.50;;;;;;;;6488208;39;9640;-51
2022/03/07 14:38:45;;;;;;;;;27.50;25.00;;;;;;;;6488489;31;8969;-57
2022/03/07 14:44:48;;;;;;;;;37.25;30.00;;;;;;;;6488099;39;8949;-53
2022/03/07 14:50:50;;;;;;;;;32.50;29.00;;;;;;;;6490129;39;9665;-57
2022/03/07 14:56:52;;;;;;;;;29.50;27.50;;;;;;;;6488707;39;8951;-58
2022/03/07 15:02:54;;;;;;;;;27.75;24.25;;;;;;;;6489964;31;8961;-52
2022/03/07 15:08:57;;;;;;;;;28.00;26.00;;;;;;;;6491706;39;8916;-54
2022/03/07 15:15:00;;;;;;;;;41.50;31.00;;;;;;;;6490665;39;8946;-54
2022/03/07 15:21:05;;;;;;;;;37.25;29.50;;;;;;;;6491424;39;8866;-54
2022/03/07 15:27:07;;;;;;;;;24.75;21.75;;;;;;;;6491169;39;8939;-57
2022/03/07 15:33:09;;;;;;;;;19.00;17.25;;;;;;;;6490547;31;9756;-55
2022/03/07 15:39:14;;;;;;;;;29.50;26.00;;;;;;;;6490979;39;8967;-57
2022/03/07 15:45:16;;;;;;;;;29.00;26.50;;;;;;;;6491637;39;8933;-55
2022/03/07 15:51:19;;;;;;;;;37.00;28.25;;;;;;;;6491564;31;8923;-54
2022/03/07 15:57:24;;;;;;;;;32.25;28.25;;;;;;;;6491426;31;9123;-57
2022/03/07 16:03:26;;;;;;;;;29.50;26.00;;;;;;;;6490537;39;8858;-54
2022/03/07 16:09:28;;;;;;;;;32.00;30.25;;;;;;;;6491520;31;8925;-52
2022/03/07 16:15:31;;;;;;;;;31.00;28.75;;;;;;;;6492177;31;8943;-54
2022/03/07 16:21:33;;;;;;;;;25.50;25.00;;;;;;;;6492788;39;8874;-55
2022/03/07 16:27:36;;;;;;;;;31.75;30.75;;;;;;;;6492486;46;8894;-56
2022/03/07 16:33:38;;;;;;;;;31.50;31.00;;;;;;;;6491743;39;8917;-56
2022/03/07 16:39:40;;;;;;;;;37.00;33.25;;;;;;;;6491921;46;8898;-54
2022/03/07 16:45:43;;;;;;;;;32.25;29.50;;;;;;;;6492858;31;8867;-57
2022/03/07 16:51:46;;;;;;;;;24.75;23.50;;;;;;;;6492118;46;8909;-54
2022/03/07 16:57:49;;;;;;;;;31.00;28.50;;;;;;;;6492217;39;8893;-55
2022/03/07 17:03:52;;;;;;;;;32.50;28.25;;;;;;;;6491927;31;8918;-55
2022/03/07 17:09:54;;;;;;;;;33.75;31.25;;;;;;;;6492522;39;8930;-54
2022/03/07 17:15:57;;;;;;;;;35.50;31.00;;;;;;;;6491686;31;8938;-54
2022/03/07 17:21:59;;;;;;;;;38.00;33.75;;;;;;;;6491881;46;8868;-54
2022/03/07 17:28:01;;;;;;;;;36.75;35.50;;;;;;;;6491639;46;8842;-54
2022/03/07 17:34:03;;;;;;;;;51.25;43.75;;;;;;;;6491125;39;8861;-52
2022/03/07 17:40:07;;;;;;;;;39.75;37.00;;;;;;;;6492663;39;8910;-54
2022/03/07 17:46:10;;;;;;;;;46.50;39.25;;;;;;;;6491588;46;8928;-57
2022/03/07 17:52:12;;;;;;;;;42.25;36.50;;;;;;;;6491524;39;9670;-52
2022/03/07 17:58:15;;;;;;;;;38.00;37.25;;;;;;;;6492703;31;9028;-56
2022/03/07 18:04:20;;;;;;;;;34.75;32.50;;;;;;;;6492031;46;8901;-54
2022/03/07 18:10:23;;;;;;;;;37.25;34.50;;;;;;;;6490991;46;8878;-51
2022/03/07 18:16:25;;;;;;;;;37.50;34.25;;;;;;;;6491466;31;8989;-54
2022/03/07 18:22:27;;;;;;;;;42.50;39.25;;;;;;;;6491511;39;8963;-55
2022/03/07 18:28:31;;;;;;;;;35.75;35.25;;;;;;;;6491977;39;8843;-54
2022/03/07 18:34:33;;;;;;;;;40.50;37.00;;;;;;;;6491487;39;8873;-53
2022/03/07 18:40:37;;;;;;;;;37.75;32.75;;;;;;;;6491713;39;9012;-55
2022/03/07 18:46:41;;;;;;;;;48.25;35.50;;;;;;;;6536905;36;9107;-51
2022/03/07 18:52:49;;;;;;;;;16.00;13.50;;;;;;;;6491427;39;9533;-54
2022/03/07 18:58:52;;;;;;;;;36.25;33.75;;;;;;;;6491841;39;8893;-55
2022/03/07 19:04:55;;;;;;;;;31.75;29.75;;;;;;;;6490411;46;9017;-57
2022/03/07 19:10:57;;;;;;;;;30.25;28.25;;;;;;;;6491149;39;8846;-52
2022/03/07 19:17:00;;;;;;;;;30.00;29.50;;;;;;;;6491140;39;8946;-53
2022/03/07 19:23:04;;;;;;;;;28.50;24.75;;;;;;;;6491542;31;8898;-53
2022/03/07 19:29:07;;;;;;;;;35.00;30.75;;;;;;;;6491617;39;8957;-55
2022/03/07 19:35:10;;;;;;;;;36.25;34.00;;;;;;;;6490546;31;8866;-52
2022/03/07 19:41:15;;;;;;;;;42.50;35.50;;;;;;;;6490363;39;9089;-55
2022/03/07 19:47:21;;;;;;;;;31.00;30.00;;;;;;;;6491219;39;9009;-54
2022/03/07 19:53:23;;;;;;;;;31.25;25.50;;;;;;;;6490931;46;9011;-55
2022/03/07 19:59:26;;;;;;;;;28.50;26.00;;;;;;;;6490778;39;8870;-57
2022/03/07 20:05:28;;;;;;;;;36.25;32.50;;;;;;;;6490796;47;8851;-55
2022/03/07 20:11:30;;;;;;;;;28.50;25.50;;;;;;;;6491159;39;8882;-54
2022/03/07 20:17:34;;;;;;;;;35.25;30.50;;;;;;;;6491047;39;8875;-55
2022/03/07 20:23:37;;;;;;;;;27.50;25.75;;;;;;;;6491021;39;8870;-54
2022/03/07 20:29:40;;;;;;;;;27.00;23.25;;;;;;;;6490824;47;8851;-55
2022/03/07 20:35:42;;;;;;;;;36.33;28.67;;;;;;;;6490259;31;9041;-55
2022/03/07 20:41:44;;;;;;;;;42.50;36.00;;;;;;;;6490639;47;9017;-52
2022/03/07 20:47:46;;;;;;;;;33.00;31.75;;;;;;;;6490321;39;8858;-55
2022/03/07 20:53:49;;;;;;;;;33.25;28.50;;;;;;;;6491560;39;8907;-52
2022/03/07 20:59:51;;;;;;;;;33.50;28.00;;;;;;;;6492111;39;8916;-53
2022/03/07 21:05:53;;;;;;;;;34.75;27.75;;;;;;;;6492580;39;8890;-52
2022/03/07 21:11:58;;;;;;;;;33.25;31.00;;;;;;;;6493223;31;9054;-53
2022/03/07 21:18:01;;;;;;;;;30.75;30.00;;;;;;;;6491137;39;8923;-55
2022/03/07 21:24:03;;;;;;;;;30.00;27.00;;;;;;;;6492459;39;8929;-55
2022/03/07 21:30:11;;;;;;;;;35.50;31.75;;;;;;;;6492010;46;8876;-55
2022/03/07 21:36:13;;;;;;;;;25.00;20.00;;;;;;;;6492696;39;8866;-54
2022/03/07 21:42:15;;;;;;;;;25.00;20.75;;;;;;;;6492369;46;8915;-53
2022/03/07 21:48:19;;;;;;;;;36.00;32.00;;;;;;;;6492232;39;8882;-54
2022/03/07 21:54:21;;;;;;;;;33.00;29.50;;;;;;;;6491706;39;8868;-51
2022/03/07 22:00:24;;;;;;;;;39.50;34.50;;;;;;;;6492041;39;8894;-53
2022/03/07 22:06:27;;;;;;;;;37.00;31.00;;;;;;;;6492033;39;8870;-55
2022/03/07 22:12:29;;;;;;;;;44.00;37.75;;;;;;;;6491933;39;8878;-54
2022/03/07 22:18:31;;;;;;;;;38.25;31.00;;;;;;;;6491897;39;8919;-53
2022/03/07 22:24:34;;;;;;;;;36.25;36.25;;;;;;;;6491693;46;8937;-53
2022/03/07 22:30:36;;;;;;;;;44.50;38.25;;;;;;;;6491395;39;8886;-54
2022/03/07 22:36:38;;;;;;;;;41.33;36.00;;;;;;;;6492017;31;8973;-51
2022/03/07 22:42:41;;;;;;;;;41.50;39.50;;;;;;;;6492039;39;8931;-55
2022/03/07 22:48:44;;;;;;;;;51.00;39.00;;;;;;;;6490853;46;8914;-55
2022/03/07 22:54:47;;;;;;;;;43.50;33.75;;;;;;;;6491486;46;9065;-53
2022/03/07 23:00:49;;;;;;;;;41.25;36.75;;;;;;;;6491950;39;8922;-55
2022/03/07 23:07:14;;;;;;;;;50.50;42.00;;;;;;;;6527830;36;9012;-55
2022/03/07 23:13:17;;;;;;;;;43.00;36.50;;;;;;;;6491514;31;8844;-54
2022/03/07 23:19:20;;;;;;;;;42.25;36.25;;;;;;;;6491263;39;8908;-53
2022/03/07 23:25:22;;;;;;;;;37.50;37.00;;;;;;;;6491570;39;8897;-55
2022/03/07 23:31:25;;;;;;;;;43.00;32.00;;;;;;;;6490969;39;8923;-53
2022/03/07 23:37:27;;;;;;;;;39.50;33.50;;;;;;;;6491078;46;8908;-55
2022/03/07 23:43:29;;;;;;;;;36.50;35.50;;;;;;;;6491064;46;8896;-54
2022/03/07 23:49:32;;;;;;;;;41.25;37.25;;;;;;;;6490630;31;8938;-54
2022/03/07 23:55:34;;;;;;;;;34.25;30.50;;;;;;;;6491194;39;8887;-54
